createdAt,value
2023-05-13T00:09:18.772Z,77.98
2023-05-13T00:19:26.660Z,77.40
2023-05-13T00:29:28.597Z,73.32
2023-05-13T00:39:30.489Z,74.49
2023-05-13T00:49:35.509Z,76.31
2023-05-13T00:59:40.348Z,77.79
2023-05-13T01:10:09.374Z,79.84
2023-05-13T01:20:12.280Z,78.72
2023-05-13T01:30:15.485Z,77.31
2023-05-13T01:40:31.909Z,76.31
2023-05-13T01:50:34.459Z,78.15
2023-05-13T02:00:38.410Z,78.62
2023-05-13T02:10:56.931Z,82.01
2023-05-13T02:20:58.832Z,82.99
2023-05-13T02:31:01.749Z,83.72
2023-05-13T02:41:03.676Z,83.63
2023-05-13T02:51:09.817Z,82.34
2023-05-13T03:01:19.748Z,83.13
2023-05-13T03:11:21.919Z,82.81
2023-05-13T03:21:23.902Z,83.85
2023-05-13T03:31:26.175Z,83.01
2023-05-13T03:41:29.390Z,82.08
2023-05-13T03:51:33.220Z,80.21
2023-05-13T04:01:36.670Z,73.81
2023-05-13T04:11:38.613Z,69.31
2023-05-13T04:21:40.574Z,70.34
2023-05-13T04:31:43.782Z,66.55
2023-05-13T04:41:49.801Z,74.91
2023-05-13T04:51:51.688Z,71.88
2023-05-13T05:01:55.139Z,65.50
2023-05-13T05:11:56.989Z,64.54
2023-05-13T05:21:58.861Z,63.09
2023-05-13T05:32:01.012Z,54.56
2023-05-13T05:42:03.233Z,53.62
2023-05-13T05:52:05.588Z,54.98
2023-05-13T06:02:08.544Z,54.94
2023-05-13T06:12:10.551Z,47.47
2023-05-13T06:22:12.495Z,47.30
2023-05-13T06:32:15.012Z,44.04
2023-05-13T06:42:21.500Z,42.57
2023-05-13T06:52:26.350Z,38.54
2023-05-13T07:02:28.223Z,38.51
2023-05-13T07:12:37.281Z,32.43
2023-05-13T07:23:07.153Z,30.17
2023-05-13T07:33:11.466Z,30.00
2023-05-13T07:43:14.471Z,29.92
2023-05-13T07:53:24.107Z,29.63
2023-05-13T08:03:26.191Z,27.39
2023-05-13T08:13:28.279Z,27.52
2023-05-13T08:23:40.840Z,27.86
2023-05-13T08:33:48.737Z,26.24
2023-05-13T08:43:54.470Z,26.40
2023-05-13T08:53:56.724Z,29.25
2023-05-13T09:04:02.167Z,28.42
2023-05-13T09:14:05.848Z,26.92
2023-05-13T09:24:13.737Z,25.25
2023-05-13T09:34:25.459Z,27.58
2023-05-13T09:44:27.555Z,27.54
2023-05-13T09:54:35.397Z,24.20
2023-05-13T10:04:37.922Z,25.53
2023-05-13T10:14:48.247Z,26.10
2023-05-13T10:24:50.397Z,25.51
2023-05-13T10:35:08.946Z,25.93
2023-05-13T10:45:11.599Z,26.20
2023-05-13T10:55:20.636Z,28.59
2023-05-13T11:05:22.879Z,26.39
2023-05-13T11:15:43.281Z,24.30
2023-05-13T11:25:46.391Z,26.35
2023-05-13T11:35:56.868Z,28.17
2023-05-13T11:45:59.883Z,30.01
2023-05-13T11:56:13.030Z,29.62
2023-05-13T12:06:16.105Z,29.14
2023-05-13T12:16:18.301Z,26.97
2023-05-13T12:26:21.941Z,27.44
2023-05-13T12:36:36.150Z,28.42
2023-05-13T12:46:38.351Z,28.41
2023-05-13T12:56:40.724Z,27.08
2023-05-13T13:06:43.012Z,26.10
2023-05-13T13:16:44.967Z,25.79
2023-05-13T13:26:50.130Z,27.39
2023-05-13T13:36:53.123Z,27.77
2023-05-13T13:46:55.264Z,26.90
2023-05-13T13:56:57.171Z,26.71
2023-05-13T14:07:00.412Z,26.49
2023-05-13T14:17:02.450Z,26.12
2023-05-13T14:27:04.604Z,26.63
2023-05-13T14:37:06.567Z,25.51
2023-05-13T14:47:09.081Z,24.76
2023-05-13T14:57:12.188Z,26.60
2023-05-13T15:07:14.219Z,26.15
2023-05-13T15:17:19.533Z,27.04
2023-05-13T15:27:26.057Z,29.02
2023-05-13T15:37:28.991Z,28.19
2023-05-13T15:47:31.265Z,28.10
2023-05-13T15:57:45.125Z,28.66
2023-05-13T16:07:47.234Z,32.23
2023-05-13T16:17:49.407Z,33.72
2023-05-13T16:27:51.489Z,34.36
2023-05-13T16:37:55.921Z,33.49
2023-05-13T16:47:58.103Z,33.95
2023-05-13T16:58:01.727Z,33.97
2023-05-13T17:08:06.943Z,32.50
2023-05-13T17:18:09.961Z,34.19
2023-05-13T17:28:11.944Z,33.27
2023-05-13T17:38:15.884Z,36.44
2023-05-13T17:48:17.928Z,37.91
2023-05-13T17:58:20.010Z,39.01
2023-05-13T18:08:24.156Z,46.34
2023-05-13T18:18:28.276Z,52.99
2023-05-13T18:28:32.392Z,54.05
2023-05-13T18:38:34.509Z,55.90
2023-05-13T18:48:38.657Z,59.37
2023-05-13T18:58:41.007Z,63.77
2023-05-13T19:08:44.183Z,65.83
2023-05-13T19:18:48.054Z,69.00
2023-05-13T19:28:50.365Z,69.16
2023-05-13T19:38:53.380Z,68.15
2023-05-13T19:48:55.499Z,65.31
2023-05-13T19:58:57.529Z,62.08
2023-05-13T20:09:01.027Z,62.71
2023-05-13T20:19:08.914Z,68.10
2023-05-13T20:29:15.048Z,69.46
2023-05-13T20:39:17.640Z,72.28
2023-05-13T20:49:31.386Z,74.36
2023-05-13T20:59:33.403Z,76.49
2023-05-13T21:09:35.394Z,76.74
2023-05-13T21:19:37.538Z,75.93
2023-05-13T21:29:39.677Z,75.29
2023-05-13T21:39:42.964Z,77.70
2023-05-13T21:49:44.989Z,75.90
2023-05-13T22:07:11.430Z,79.04
2023-05-13T22:17:34.179Z,78.63
2023-05-13T22:27:36.258Z,80.29
2023-05-13T22:37:39.281Z,80.09
2023-05-13T22:47:41.291Z,82.55
2023-05-13T22:57:43.208Z,82.78
2023-05-13T23:07:46.183Z,83.31
2023-05-13T23:17:48.197Z,83.91
2023-05-13T23:27:58.163Z,83.75
2023-05-13T23:38:00.838Z,85.38
2023-05-13T23:48:03.774Z,85.71
2023-05-13T23:58:05.772Z,86.78
